AirNav   Phillips 66 Aviation Fuel
 
 664 users online  

4IS3 University of Chicago Hospitals Heliport
Chicago, Illinois, USA

GOING TO CHICAGO?


FAA INFORMATION EFFECTIVE 19 JULY 2018

Location

FAA Identifier: 4IS3
Lat/Long: 41-47-27.3700N / 087-36-19.4300W
41-47.456167N / 087-36.323833W
41.7909361 / -87.6053972
(estimated)
Elevation: 665 ft. / 203 m (estimated)
Variation: 01W (1984)
Time zone: UTC -5 (UTC -6 during Standard Time)
Zip code: 60637

Heliport Operations

Heliport use: Private use, MEDICAL USE.
Activation date: 02/1984
Control tower: no
ARTCC: CHICAGO CENTER
FSS: KANKAKEE FLIGHT SERVICE STATION
Attendance: CONTINUOUS
Wind indicator: yes
Segmented circle: no
Beacon: white-green-yellow (heliport)
24 HRS

Heliport Communications

WX ASOS at MDW (7 nm W): PHONE 773-884-4424
WX AWOS-3PT at GYY (13 nm SE): 134.575 (219-944-0010)
WX AWOS-3 at IGQ (16 nm S): 119.275 (708-895-9526)
WX ASOS at ORD (17 nm NW): PHONE 773-462-0118
  • FREQ 129.475 AVBL FOR MEDICAL CNTR.

Nearby radio navigation aids

VOR radial/distance  VOR name  Freq  Var
CGTr353/16.9CHICAGO HEIGHTS VORTAC114.2002E
ORDr129/17.8CHICAGO O'HARE VOR/DME113.9002E
OBKr151/30.1NORTHBROOK VOR/DME113.0002W
EONr013/32.4PEOTONE VORTAC113.2002E
DPAr098/33.8DUPAGE VOR/DME108.4002E
JOTr063/35.2JOLIET VOR/DME112.3002E

Heliport Services

Runway Information

Helipad H1

Dimensions: 38 x 30 ft. / 12 x 9 m
Surface: pierced steel planking
ROOFTOP.
Runway edge lights: HELI LGTS WITH PERIMETER LGTS.
Latitude: 41-47.345500N
Longitude: 087-36.219500W
Elevation: 665.0 ft.
Traffic pattern: leftleft

Helipad H2

Dimensions: 50 x 50 ft. / 15 x 15 m
Surface: mats
Latitude: 41-47.458167N
Longitude: 087-36.325500W
Elevation: 665.0 ft.
Traffic pattern: leftleft

Heliport Ownership and Management from official FAA records

Ownership: Privately-owned
Owner: UNIV CHICAGO HOSPITALS
5841 S MARYLAND, MC 0952, RM C-38
CHICAGO, IL 60637
Phone 312-702-3222
Manager: DR. IRA BLUMEN
5841 S MARYLAND, MC 0952, RM C-38
CHICAGO, IL 60637
Phone 773-702-3222

Heliport Operational Statistics

Aircraft based on the field: 1
Helicopters: 1
    

Instrument Procedures

There are no published instrument procedures at 4IS3.

Some nearby airports with instrument procedures:

KMDW - Chicago Midway International Airport (7 nm W)
KGYY - Gary/Chicago International Airport (13 nm SE)
KIGQ - Lansing Municipal Airport (16 nm S)
KORD - Chicago O'Hare International Airport (17 nm NW)
05C - Griffith-Merrillville Airport (19 nm SE)
 
Loc | Ops | Rwys | IFR | FBO | Links
Com | Nav | Svcs | Stats | Notes


 
Area around 4IS3 (University of Chicago Hospitals Heliport)
 
Road maps at: MapQuest Bing Google
 
Aerial photo
No photo
 
Sectional chart

 
Airport distance calculator
Flying to University of Chicago Hospitals Heliport? Find the distance to fly.

From to 4IS3

Sunrise and sunset
Times for 18-Jul-2018
 Local
(UTC-5)
 Zulu
(UTC)
Morning civil twilight04:5909:59
Sunrise05:3210:32
Sunset20:2101:21
Evening civil twilight20:5401:54

Current date and time
Zulu (UTC)  19-Jul-2018 04:27:21
Local (UTC-5)  18-Jul-2018 23:27:21
 
METAR
4IS3 SuperAWOS
190355Z AUTO 10SM A3009
KMDW 
6nm W 
190353Z 10005KT 10SM OVC250 22/14 A3005 RMK AO2 SLP166 T02220144
KGYY 
13nm SE 
190415Z AUTO 08004KT 10SM CLR 20/14 A3006 RMK AO2 T01990143
KIGQ 
16nm S 
190415Z AUTO 00000KT 10SM CLR 18/15 A3005 RMK AO2 T01760152
KORD 
19nm NW 
190351Z 00000KT 10SM BKN250 22/12 A3005 RMK AO2 SLP172 T02170117
TAF
KMDW 
6nm W 
182101Z 1821/1924 08010KT P6SM FEW050 SCT250 FM190300 08004KT P6SM SCT250 FM191200 12007KT P6SM SCT200 FM191700 17012G18KT P6SM SCT045 BKN120
KGYY 
13nm SE 
182101Z 1821/1918 05010KT P6SM SCT250 FM190300 06005KT P6SM SCT250 FM191000 13005KT P6SM SCT200 FM191700 16011G17KT P6SM FEW045 BKN150
KORD 
19nm NW 
182101Z 1821/1924 08010KT P6SM FEW050 SCT250 FM190300 08004KT P6SM SCT250 FM191200 12006KT P6SM SCT200 FM191700 17012G18KT P6SM SCT045 BKN120
NOTAMs
Click for the latest NOTAMs
NOTAMs are issued by the DoD/FAA and will open in a separate window not controlled by AirNav.

 

 
 

Would you like to see your business listed on this page?

 If your business provides an interesting product or service to pilots, flight crews, aircraft, or users of the University of Chicago Hospitals Heliport, you should consider listing it here.  To start the listing process, click on the button below
 
Add a business
 

Other Pages about University of Chicago Hospitals Heliport

Update a link
 
Copyright © AirNav, LLC. All rights reserved. Privacy Policy  Contact